Airfield :
LOGIN :

Register | Disclaimer

   EN    FR    IT 

 










Legend :    VFR   Marginal VFR   IFR   Intensive IFR   Very Intensive IFR
Visi :
Ceiling :
>= 8 km
>= 3000ft
5 to 8 km
1000 to 3000 ft
1500m to 5 km
500 to 1000 ft
800 to 1500m
200 to 500 ft
< 800m
< 200 ft
Symbols :   Thunderstorms  Fog  Heavy snow  Heavy precipitations  Wind > 20 kt
SIGMETs :     Misc.  Thunderstorms  Icing  Turbulence  Mountain Waves  Volcanic Ashes






- Airport Elevation : 276 ft


LYVR - Vršac International

CURRENT METAR :
  • 200630Z VRB01KT 2000 BR BKN003 M01/M01 Q1041 NOSIG

EXPIRED METARs :
  • 200600Z 00000KT 2000 BR BKN003 M01/M01 Q1041 NOSIG
  • 200530Z VRB01KT 3000 BR BKN003 M01/M01 Q1040 NOSIG
  • 200500Z AUTO 29003KT 3700 BR OVC002/// M01/M01 Q1040
  • 200430Z AUTO 35002KT 3400 BR OVC002/// M01/M01 Q1039
  • 200400Z AUTO VRB02KT 3300 BR OVC002/// M00/M00 Q1039

TAF TAF LYVR
Valid from the 20 at 06:00 until the 21 at 06:00 UTC


200500Z 2006/2106 33005KT 3000 BR BKN006 BKN025 TX02/2012Z TNM03/2106Z
TEMPO 2006/2009 1500 BKN002 BKN023
BECMG 2010/2012 6000 NSW SCT010 BKN27
BECMG 2016/2018 3000 BR BKN010
TEMPO 2100/2106 1500 BKN003



MET'MAP, your aeronautical weather chart ! - Copyright ORBIFLY December 2007 - Disclaimer

ORBIFLY MET'MAP TEAM :

Programming & Development : Alexandra Zaïnal
Concept & original design : Baudouin d'Aumeries
Assistance for programming : Marc-Olivier Méhu
Technical & hardware support : Manuel Goepfert

Contact : metmap@orbifly.com




SOURCES & CREDITS :

   NOAA